Bei Facebook empfehlenBei Twitter postenGoogle plusPinterest

Das Wetter im Erzgebirge am 12.06.2017

Wetter und Klima am 12.06.2017 Holzhau im Erzgebirge (630m ü.NN)
Letzte gemessene Temperatur und Uhrzeit der Messung23:45:00 Uhr12.50 °C
Temperatur (Maximum / Höchstwert) und Uhrzeit der Messung09:45:00 Uhr24.90 °C
Temperatur (Minimum / Tiefstwert) und Uhrzeit der Messung23:45:0012.50 °C
Errechneter Absolutwert der Temperaturschwankungen zwischen Tmin und Tmax des Tages12.40 K
Errechnete Tagesmitteltemperatur20.05833 °C
Gesamt - Niederschlag des Tages (in flüssiger Form)0.00 Liter / m²
Luftdruck (Maximum / Höchstwert) und Zeitpunkt der Messung23:30:00 Uhr1013.50 hPa
Luftdruck (Minimum / Tiefstwert) und Zeitpunkt der Messung08:45:00 Uhr1009.00 hPa
Errechneter Absolutwert der Luftdruckschwankungen des Tages4.50 hPa
Höchste gemessene Windgeschwindigkeit und Uhrzeit der Messung09:45:00 Uhr32.40 km/h
Errechnete Windhäufigkeit in Relation zu den Messwerten des Tages19.79167 %
Niedrigste Windkühle (Windchill) und Zeitpunkt der Messung23:45:00 Uhr12.50 °C
Taupunkt (Maximum / Höchstwert) und Uhrzeit der Messung11:00:00 Uhr16.50 °C
Taupunkt (Minimum / Tiefstwert) und Uhrzeit der Messung23:45:007.20 °C
Anzahl der automatisch eingelesenen Messwerte 96

Detaillierte Wetter- und Klima- Messwerte für den 12.06.2017 in Holzhau im Erzgebirge (630m ü.NN)
ZeitTemperaturLuftdruckRel. LuftfeuchteWindWindrichtungWindchillTaupunktNiederschlag l/m²
23:45:0012.50 °C1013.40 hPa70.00 %7.20 °C 
23:30:0012.60 °C1013.50 hPa71.00 %7.50 °C 
23:15:0012.50 °C1013.40 hPa72.00 %7.60 °C 
23:00:0012.80 °C1013.40 hPa72.00 %7.90 °C 
22:45:0012.90 °C1013.30 hPa72.00 %8.00 °C 
22:30:0013.00 °C1013.40 hPa71.00 %7.90 °C 
22:15:0013.00 °C1013.30 hPa71.00 %7.90 °C 
22:00:0013.30 °C1013.20 hPa70.00 %8.00 °C 
21:45:0013.40 °C1013.20 hPa69.00 %7.80 °C 
21:30:0013.90 °C1013.00 hPa67.00 %7.90 °C 
21:15:0014.50 °C1012.60 hPa66.00 %8.20 °C 
21:00:0015.10 °C1012.40 hPa64.00 %8.30 °C 
20:45:0015.60 °C1012.10 hPa62.00 %8.40 °C 
20:30:0016.30 °C1012.20 hPa61.00 %8.80 °C 
20:15:0016.90 °C1011.90 hPa59.00 %8.80 °C 
20:00:0017.50 °C1011.90 hPa56.00 %8.60 °C 
19:45:0018.40 °C1012.00 hPa54.00 %8.90 °C 
19:30:0019.10 °C1011.80 hPa54.00 %9.60 °C 
19:15:0019.60 °C1011.80 hPa53.00 %9.80 °C 
19:00:0020.30 °C1011.70 hPa52.00 %7.92 km/hW20.30 °C10.10 °C 
18:45:0020.60 °C1011.70 hPa52.00 %10.40 °C 
18:30:0020.90 °C1011.60 hPa52.00 %27.36 km/hWNW21.80 °C10.70 °C 
18:15:0021.10 °C1011.50 hPa52.00 %10.90 °C 
18:00:0021.60 °C1011.60 hPa51.00 %11.00 °C 
17:45:0022.30 °C1011.50 hPa51.00 %11.70 °C 
17:30:0022.60 °C1011.50 hPa51.00 %12.00 °C 
17:15:0022.10 °C1011.50 hPa51.00 %11.50 °C 
17:00:0023.10 °C1011.50 hPa49.00 %11.80 °C 
16:45:0023.60 °C1011.10 hPa49.00 %12.30 °C 
16:30:0023.50 °C1011.20 hPa49.00 %21.96 km/hW25.00 °C12.20 °C 
16:15:0023.60 °C1011.00 hPa50.00 %12.60 °C 
16:00:0023.30 °C1010.90 hPa51.00 %12.60 °C 
15:45:0022.90 °C1010.80 hPa53.00 %3.96 km/hW22.90 °C12.80 °C 
15:30:0022.90 °C1010.90 hPa55.00 %14.40 km/hSSW22.90 °C13.40 °C 
15:15:0023.40 °C1010.50 hPa55.00 %13.80 °C 
15:00:0023.50 °C1010.70 hPa57.00 %14.50 °C 
14:45:0022.80 °C1010.70 hPa58.00 %3.96 km/hNW22.80 °C14.10 °C 
14:30:0023.40 °C1010.50 hPa60.00 %15.20 °C 
14:15:0021.90 °C1010.70 hPa63.00 %14.50 °C 
14:00:0022.00 °C1010.70 hPa61.00 %14.10 °C 
13:45:0023.60 °C1010.30 hPa58.00 %14.90 °C 
13:30:0023.80 °C1010.50 hPa58.00 %15.00 °C 
13:15:0023.70 °C1010.70 hPa62.00 %23.40 km/hSW25.20 °C16.00 °C 
13:00:0023.10 °C1010.60 hPa62.00 %15.40 °C 
12:45:0023.10 °C1010.50 hPa62.00 %10.44 km/hWSW23.10 °C15.40 °C 
12:30:0024.20 °C1010.50 hPa57.00 %15.10 °C 
12:15:0024.20 °C1010.50 hPa59.00 %27.36 km/hWSW25.70 °C15.70 °C 
12:00:0024.40 °C1010.40 hPa58.00 %15.60 °C 
11:45:0024.50 °C1010.30 hPa59.00 %16.00 °C 
11:30:0023.60 °C1010.20 hPa61.00 %15.60 °C 
11:15:0023.90 °C1010.10 hPa58.00 %15.10 °C 
11:00:0024.80 °C1009.80 hPa60.00 %3.96 km/hNNW24.80 °C16.50 °C 
10:45:0024.40 °C1009.90 hPa59.00 %15.90 °C 
10:30:0023.90 °C1009.80 hPa59.00 %15.40 °C 
10:15:0023.30 °C1009.60 hPa57.00 %21.96 km/hSSW24.80 °C14.30 °C 
10:00:0024.10 °C1009.70 hPa55.00 %14.50 °C 
09:45:0024.90 °C1009.70 hPa55.00 %32.40 km/hWNW26.50 °C15.20 °C 
09:30:0023.50 °C1009.60 hPa57.00 %14.50 °C 
09:15:0023.60 °C1009.30 hPa57.00 %7.92 km/hNW23.60 °C14.60 °C 
09:00:0023.60 °C1009.40 hPa57.00 %14.60 °C 
08:45:0023.20 °C1009.00 hPa57.00 %14.20 °C 
08:30:0022.80 °C1009.10 hPa58.00 %2.52 km/hNNW22.80 °C14.10 °C 
08:15:0022.30 °C1009.00 hPa60.00 %14.20 °C 
08:00:0021.10 °C1009.10 hPa61.00 %13.30 °C 
07:45:0020.40 °C1009.30 hPa61.00 %12.60 °C 
07:30:0019.90 °C1009.30 hPa60.00 %11.90 °C 
07:15:0019.90 °C1009.30 hPa59.00 %11.70 °C 
07:00:0019.90 °C1009.10 hPa58.00 %11.40 °C 
06:45:0019.90 °C1009.40 hPa57.00 %11.10 °C 
06:30:0019.90 °C1009.40 hPa56.00 %10.90 °C 
06:15:0019.80 °C1009.40 hPa56.00 %21.96 km/hSW20.70 °C10.80 °C 
06:00:0019.60 °C1009.50 hPa56.00 %10.60 °C 
05:45:0019.20 °C1009.60 hPa57.00 %10.50 °C 
05:30:0019.10 °C1009.60 hPa57.00 %10.40 °C 
05:15:0019.10 °C1009.60 hPa57.00 %10.40 °C 
05:00:0019.10 °C1009.60 hPa57.00 %20.88 km/hSW20.00 °C10.40 °C 
04:45:0019.20 °C1009.70 hPa57.00 %10.50 °C 
04:30:0019.30 °C1009.80 hPa57.00 %29.88 km/hSW19.90 °C10.60 °C 
04:15:0019.30 °C1010.00 hPa57.00 %10.60 °C 
04:00:0019.10 °C1010.00 hPa58.00 %10.60 °C 
03:45:0019.00 °C1010.10 hPa59.00 %25.92 km/hSSW19.70 °C10.80 °C 
03:30:0019.10 °C1010.30 hPa59.00 %10.90 °C 
03:15:0018.60 °C1010.30 hPa61.00 %10.90 °C 
03:00:0017.40 °C1010.40 hPa65.00 %27.36 km/hSSW17.80 °C10.80 °C 
02:45:0016.90 °C1010.60 hPa66.00 %10.50 °C 
02:30:0017.20 °C1011.00 hPa64.00 %10.30 °C 
02:15:0017.50 °C1010.80 hPa62.00 %10.10 °C 
02:00:0017.70 °C1010.80 hPa62.00 %10.30 °C 
01:45:0017.60 °C1010.80 hPa61.00 %10.00 °C 
01:30:0017.80 °C1010.80 hPa61.00 %10.20 °C 
01:15:0018.30 °C1010.90 hPa59.00 %10.20 °C 
01:00:0018.80 °C1011.30 hPa58.00 %10.40 °C 
00:45:0018.60 °C1011.30 hPa58.00 %10.20 °C 
00:30:0018.60 °C1011.30 hPa59.00 %10.40 °C 
00:15:0018.80 °C1011.40 hPa57.00 %10.10 °C 
00:00:0019.10 °C1011.60 hPa57.00 %10.40 °C 

Permanenter Link zu dieser Seite: Wetter im Erzgebirge am 12.06.2017
Performance-Info: Die Erstellung der Seite / Statistik(en) / Tabelle(n) erforderte 5 Datenbankserver-Abfrage(n) und dauerte 122 Millisekunden. (Dieser Messwert ist von der Gesamt-Auslastung des Servers abhängig.)
Erzgebirge - Wetter | Erzgebirge - Wetter (Mobilgeräte) | Komplette Klimadatenbank